createdAt,value
2023-03-12T00:00:41.880Z,3.67
2023-03-12T00:03:10.532Z,3.17
2023-03-12T00:05:38.924Z,3.33
2023-03-12T00:08:07.186Z,3.40
2023-03-12T00:10:35.841Z,3.50
2023-03-12T00:13:05.219Z,3.60
2023-03-12T00:15:33.199Z,3.50
2023-03-12T00:18:01.304Z,3.23
2023-03-12T00:20:29.263Z,3.60
2023-03-12T00:22:57.208Z,3.93
2023-03-12T00:25:25.411Z,3.80
2023-03-12T00:27:53.374Z,3.50
2023-03-12T00:30:22.931Z,3.30
2023-03-12T00:32:51.130Z,3.47
2023-03-12T00:35:19.297Z,3.77
2023-03-12T00:37:47.218Z,3.33
2023-03-12T00:40:15.500Z,3.80
2023-03-12T00:42:43.637Z,3.43
2023-03-12T00:45:12.514Z,3.80
2023-03-12T00:47:41.878Z,3.40
2023-03-12T00:50:10.885Z,3.53
2023-03-12T00:52:38.865Z,3.60
2023-03-12T00:55:07.353Z,3.57
2023-03-12T00:57:35.315Z,3.80
2023-03-12T01:00:04.655Z,3.67
2023-03-12T01:02:32.590Z,3.73
2023-03-12T01:05:02.005Z,3.67
2023-03-12T01:07:30.012Z,3.00
2023-03-12T01:09:58.479Z,3.50
2023-03-12T01:12:26.895Z,4.00
2023-03-12T01:14:54.952Z,3.40
2023-03-12T01:17:22.966Z,3.47
2023-03-12T01:19:50.957Z,3.73
2023-03-12T01:22:20.278Z,3.60
2023-03-12T01:24:48.280Z,3.40
2023-03-12T01:27:16.228Z,3.73
2023-03-12T01:29:47.398Z,3.07
2023-03-12T01:32:17.042Z,3.50
2023-03-12T01:34:45.239Z,3.63
2023-03-12T01:37:13.184Z,4.20
2023-03-12T01:39:45.275Z,3.60
2023-03-12T01:42:13.191Z,3.17
2023-03-12T01:44:51.825Z,3.10
2023-03-12T01:47:19.950Z,3.23
2023-03-12T01:49:49.346Z,3.60
2023-03-12T01:52:19.953Z,3.17
2023-03-12T01:54:56.113Z,3.40
2023-03-12T01:57:27.605Z,3.30
2023-03-12T01:59:59.056Z,3.57
2023-03-12T02:02:29.831Z,3.07
2023-03-12T02:05:05.070Z,3.20
2023-03-12T02:07:35.277Z,3.13
2023-03-12T02:10:05.786Z,3.47
2023-03-12T02:12:33.899Z,3.67
2023-03-12T02:15:02.194Z,2.97
2023-03-12T02:17:31.067Z,3.30
2023-03-12T02:20:07.976Z,3.23
2023-03-12T02:22:36.860Z,3.03
2023-03-12T02:25:19.234Z,3.90
2023-03-12T02:27:48.100Z,2.87
2023-03-12T02:30:18.253Z,3.30
2023-03-12T02:32:47.612Z,3.40
2023-03-12T02:35:18.064Z,3.50
2023-03-12T02:37:50.526Z,3.53
2023-03-12T02:40:25.827Z,3.80
2023-03-12T02:42:54.660Z,3.37
2023-03-12T02:45:23.182Z,3.33
2023-03-12T02:47:51.146Z,3.20
2023-03-12T02:50:19.186Z,3.60
2023-03-12T02:52:47.175Z,3.93
2023-03-12T02:55:15.227Z,3.43
2023-03-12T02:57:44.564Z,3.90
2023-03-12T03:00:16.352Z,3.87
2023-03-12T03:02:45.105Z,3.63
2023-03-12T03:05:13.603Z,3.80
2023-03-12T03:07:41.623Z,3.33
2023-03-12T03:10:11.776Z,3.67
2023-03-12T03:12:39.715Z,3.63
2023-03-12T03:15:10.718Z,3.33
2023-03-12T03:17:38.854Z,3.27
2023-03-12T03:20:11.153Z,3.50
2023-03-12T03:22:40.006Z,3.33
2023-03-12T03:25:09.492Z,3.53
2023-03-12T03:27:37.846Z,3.20
2023-03-12T03:30:08.936Z,3.53
2023-03-12T03:32:36.991Z,3.20
2023-03-12T03:35:05.257Z,3.50
2023-03-12T03:37:33.227Z,3.67
2023-03-12T03:40:01.354Z,3.40
2023-03-12T03:42:29.331Z,3.77
2023-03-12T03:44:57.322Z,3.07
2023-03-12T03:47:26.684Z,3.23
2023-03-12T03:49:54.624Z,2.83
2023-03-12T03:52:22.560Z,3.50
2023-03-12T03:54:50.626Z,3.07
2023-03-12T03:57:18.517Z,3.40
2023-03-12T03:59:46.446Z,3.70
2023-03-12T04:02:14.490Z,4.00
2023-03-12T04:04:43.999Z,3.83
2023-03-12T04:07:12.042Z,4.07
2023-03-12T04:09:40.100Z,3.50
2023-03-12T04:12:08.593Z,4.03
2023-03-12T04:14:36.540Z,4.40
2023-03-12T04:17:04.563Z,4.20
2023-03-12T04:19:32.556Z,4.57
2023-03-12T04:22:02.087Z,4.57
2023-03-12T04:24:30.392Z,4.77
2023-03-12T04:26:59.251Z,4.70
2023-03-12T04:29:27.410Z,4.70
2023-03-12T04:31:55.408Z,5.50
2023-03-12T04:34:23.436Z,5.30
2023-03-12T04:36:51.749Z,5.40
2023-03-12T04:39:21.378Z,5.10
2023-03-12T04:41:49.452Z,5.10
2023-03-12T04:44:17.608Z,5.43
2023-03-12T04:46:46.037Z,5.30
2023-03-12T04:49:14.158Z,6.03
2023-03-12T04:51:42.140Z,5.23
2023-03-12T04:54:10.184Z,5.77
2023-03-12T04:56:39.518Z,5.30
2023-03-12T04:59:07.516Z,5.30
2023-03-12T05:01:37.168Z,5.83
2023-03-12T05:04:05.512Z,5.83
2023-03-12T05:06:33.991Z,5.87
2023-03-12T05:09:02.379Z,6.33
2023-03-12T05:11:30.390Z,6.40
2023-03-12T05:13:59.747Z,5.70
2023-03-12T05:16:28.101Z,6.37
2023-03-12T05:18:56.162Z,6.13
2023-03-12T05:21:24.118Z,6.20
2023-03-12T05:23:52.110Z,6.33
2023-03-12T05:26:22.257Z,7.03
2023-03-12T05:28:50.396Z,7.10
2023-03-12T05:31:20.623Z,6.20
2023-03-12T05:33:51.026Z,6.90
2023-03-12T05:36:21.252Z,6.80
2023-03-12T05:38:49.359Z,6.90
2023-03-12T05:41:21.312Z,7.73
2023-03-12T05:43:49.863Z,7.63
2023-03-12T05:46:19.398Z,7.97
2023-03-12T05:48:47.438Z,7.80
2023-03-12T05:51:15.588Z,8.90
2023-03-12T05:53:43.713Z,8.30
2023-03-12T05:56:14.477Z,8.87
2023-03-12T05:58:42.488Z,8.97
2023-03-12T06:01:13.954Z,9.17
2023-03-12T06:03:43.645Z,9.37
2023-03-12T06:06:12.293Z,10.70
2023-03-12T06:08:40.667Z,9.77
2023-03-12T06:11:08.850Z,10.80
2023-03-12T06:13:37.054Z,9.80
2023-03-12T06:16:06.071Z,9.77
2023-03-12T06:18:35.200Z,10.30
2023-03-12T06:21:12.798Z,9.83
2023-03-12T06:23:41.247Z,10.57
2023-03-12T06:26:09.949Z,10.57
2023-03-12T06:28:38.266Z,10.93
2023-03-12T06:31:07.215Z,11.70
2023-03-12T06:33:36.059Z,11.70
2023-03-12T06:36:06.860Z,11.70
2023-03-12T06:38:37.126Z,12.90
2023-03-12T06:41:07.818Z,11.80
2023-03-12T06:43:37.696Z,12.77
2023-03-12T06:46:06.984Z,12.60
2023-03-12T06:48:37.094Z,14.00
2023-03-12T06:51:05.602Z,13.93
2023-03-12T06:53:35.358Z,15.27
2023-03-12T06:56:03.986Z,13.90
2023-03-12T06:58:32.054Z,15.97
2023-03-12T07:01:01.480Z,15.30
2023-03-12T07:03:29.553Z,16.60
2023-03-12T07:05:58.722Z,16.53
2023-03-12T07:08:29.860Z,14.63
2023-03-12T07:11:01.686Z,16.10
2023-03-12T07:13:30.188Z,14.90
2023-03-12T07:15:58.390Z,15.73
2023-03-12T07:18:26.373Z,15.43
2023-03-12T07:20:54.740Z,15.50
2023-03-12T07:23:23.341Z,15.60
2023-03-12T07:25:52.101Z,15.00
2023-03-12T07:28:22.485Z,16.77
2023-03-12T07:30:51.196Z,16.90
2023-03-12T07:33:21.180Z,15.10
2023-03-12T07:35:51.759Z,15.87
2023-03-12T07:38:20.019Z,17.00
2023-03-12T07:40:52.359Z,16.43
2023-03-12T07:43:22.045Z,14.47
2023-03-12T07:45:50.297Z,16.03
2023-03-12T07:48:19.825Z,16.53
2023-03-12T07:50:48.624Z,16.93
2023-03-12T07:53:19.009Z,15.30
2023-03-12T07:55:48.301Z,19.23
2023-03-12T07:58:17.135Z,17.87
2023-03-12T08:00:46.659Z,18.73
2023-03-12T08:03:15.021Z,17.20
2023-03-12T08:05:43.313Z,16.97
2023-03-12T08:08:11.582Z,17.60
2023-03-12T08:10:39.681Z,18.67
2023-03-12T08:13:08.080Z,20.43
2023-03-12T08:15:36.068Z,19.77
2023-03-12T08:18:05.481Z,18.93
2023-03-12T08:20:33.556Z,21.07
2023-03-12T08:23:01.561Z,20.30
2023-03-12T08:25:29.944Z,19.20
2023-03-12T08:27:57.999Z,21.10
2023-03-12T08:30:27.806Z,20.03
2023-03-12T08:32:57.948Z,20.00
2023-03-12T08:35:27.547Z,20.27
2023-03-12T08:37:56.982Z,19.83
2023-03-12T08:40:25.326Z,17.50
2023-03-12T08:42:53.304Z,17.90
2023-03-12T08:45:21.265Z,17.97
2023-03-12T08:47:50.252Z,14.70
2023-03-12T08:50:20.579Z,14.33
2023-03-12T08:52:50.037Z,10.53
2023-03-12T08:55:18.190Z,8.03
2023-03-12T08:57:46.207Z,7.30
2023-03-12T09:00:16.222Z,6.73
2023-03-12T09:02:45.580Z,7.30
2023-03-12T09:05:14.150Z,6.73
2023-03-12T09:07:42.727Z,6.07
2023-03-12T09:10:12.696Z,6.87
2023-03-12T09:12:40.754Z,5.27
2023-03-12T09:15:10.300Z,5.90
2023-03-12T09:17:38.728Z,6.20
2023-03-12T09:20:08.904Z,6.00
2023-03-12T09:22:37.850Z,5.37
2023-03-12T09:25:08.993Z,6.17
2023-03-12T09:27:40.028Z,5.13
2023-03-12T09:30:10.734Z,3.63
2023-03-12T09:32:38.790Z,5.43
2023-03-12T09:35:08.102Z,5.37
2023-03-12T09:37:36.115Z,4.40
2023-03-12T09:40:07.625Z,5.13
2023-03-12T09:42:47.315Z,5.10
2023-03-12T09:45:18.053Z,5.10
2023-03-12T09:47:50.532Z,5.07
2023-03-12T09:50:26.910Z,4.87
2023-03-12T09:52:59.357Z,4.97
2023-03-12T09:55:29.735Z,5.33
2023-03-12T09:57:59.434Z,5.03
2023-03-12T10:00:32.731Z,5.70
2023-03-12T10:03:26.933Z,5.17
2023-03-12T10:06:05.305Z,4.97
2023-03-12T10:08:47.505Z,6.07
2023-03-12T10:11:27.146Z,4.80
2023-03-12T10:14:09.048Z,5.50
2023-03-12T10:16:51.564Z,6.40
2023-03-12T10:19:31.682Z,4.80
2023-03-12T10:22:08.163Z,5.37
2023-03-12T10:24:49.302Z,5.00
2023-03-12T10:27:19.025Z,5.60
2023-03-12T10:29:54.551Z,5.70
2023-03-12T10:32:27.415Z,5.57
2023-03-12T10:34:57.814Z,5.23
2023-03-12T10:37:30.328Z,5.17
2023-03-12T10:40:00.752Z,4.70
2023-03-12T10:42:31.108Z,5.20
2023-03-12T10:45:15.602Z,5.60
2023-03-12T10:47:45.374Z,5.27
2023-03-12T10:50:19.036Z,4.50
2023-03-12T10:52:49.185Z,5.13
2023-03-12T10:55:23.889Z,4.47
2023-03-12T10:57:52.053Z,4.43
2023-03-12T11:00:24.237Z,4.27
2023-03-12T11:03:01.089Z,5.53
2023-03-12T11:05:32.299Z,4.30
2023-03-12T11:08:02.033Z,5.63
2023-03-12T11:10:43.108Z,5.17
2023-03-12T11:13:25.768Z,5.87
2023-03-12T11:15:56.996Z,5.47
2023-03-12T11:18:28.920Z,5.57
2023-03-12T11:20:58.701Z,5.40
2023-03-12T11:23:29.986Z,4.97
2023-03-12T11:26:01.942Z,5.40
2023-03-12T11:28:37.828Z,5.80
2023-03-12T11:31:16.578Z,7.07
2023-03-12T11:33:44.726Z,5.43
2023-03-12T11:36:40.445Z,5.63
2023-03-12T11:39:16.447Z,5.30
2023-03-12T11:42:08.165Z,5.50
2023-03-12T11:44:43.066Z,5.13
2023-03-12T11:47:41.122Z,5.60
2023-03-12T11:50:19.679Z,4.97
2023-03-12T11:53:05.308Z,5.87
2023-03-12T11:55:43.735Z,5.30
2023-03-12T11:58:35.027Z,6.50
2023-03-12T12:01:11.308Z,5.63
2023-03-12T12:04:06.172Z,5.73
2023-03-12T12:06:42.213Z,5.63
2023-03-12T12:09:22.539Z,5.43
2023-03-12T12:12:07.376Z,5.50
2023-03-12T12:14:52.764Z,6.17
2023-03-12T12:17:30.682Z,5.30
2023-03-12T12:20:13.427Z,6.00
2023-03-12T12:22:51.043Z,4.73
2023-03-12T12:26:01.300Z,5.87
2023-03-12T12:28:46.576Z,6.47
2023-03-12T12:31:28.973Z,5.80
2023-03-12T12:34:10.653Z,4.87
2023-03-12T12:36:40.092Z,5.97
2023-03-12T12:39:14.344Z,5.60
2023-03-12T12:41:49.530Z,5.30
2023-03-12T12:44:21.432Z,4.43
2023-03-12T12:46:53.393Z,5.60
2023-03-12T12:49:26.725Z,5.70
2023-03-12T12:51:59.379Z,5.33
2023-03-12T12:54:34.332Z,4.73
2023-03-12T12:57:08.497Z,5.30
2023-03-12T12:59:42.016Z,6.43
2023-03-12T13:02:18.252Z,5.77
2023-03-12T13:04:47.493Z,5.30
2023-03-12T13:07:34.227Z,5.03
2023-03-12T13:10:08.590Z,5.17
2023-03-12T13:12:44.331Z,5.57
2023-03-12T13:15:34.892Z,4.43
2023-03-12T13:18:09.533Z,5.07
2023-03-12T13:20:47.920Z,3.93
2023-03-12T13:23:33.828Z,6.43
2023-03-12T13:26:07.624Z,5.87
2023-03-12T13:28:42.026Z,5.57
2023-03-12T13:31:37.569Z,4.77
2023-03-12T13:34:53.525Z,5.63
2023-03-12T13:37:49.076Z,5.07
2023-03-12T13:41:02.117Z,5.67
2023-03-12T13:43:52.675Z,5.40
2023-03-12T13:46:42.539Z,5.23
2023-03-12T13:49:19.424Z,6.37
2023-03-12T13:52:00.440Z,4.53
2023-03-12T13:54:35.828Z,6.03
2023-03-12T13:57:11.417Z,5.17
2023-03-12T13:59:46.165Z,5.87
2023-03-12T14:02:21.680Z,5.53
2023-03-12T14:04:49.892Z,5.07
2023-03-12T14:07:46.399Z,6.23
2023-03-12T14:10:26.987Z,5.97
2023-03-12T14:13:06.920Z,5.57
2023-03-12T14:15:45.969Z,6.53
2023-03-12T14:18:23.430Z,5.27
2023-03-12T14:20:57.108Z,4.53
2023-03-12T14:23:29.413Z,5.07
2023-03-12T14:26:03.915Z,5.63
2023-03-12T14:28:39.644Z,6.93
2023-03-12T14:31:14.154Z,4.60
2023-03-12T14:33:52.074Z,5.83
2023-03-12T14:36:23.974Z,6.87
2023-03-12T14:39:11.497Z,4.40
2023-03-12T14:41:46.556Z,5.73
2023-03-12T14:44:23.983Z,6.70
2023-03-12T14:47:01.914Z,5.80
2023-03-12T14:49:31.458Z,6.57
2023-03-12T14:51:59.562Z,5.10
2023-03-12T14:54:28.928Z,5.83
2023-03-12T14:56:57.019Z,6.60
2023-03-12T14:59:28.881Z,7.03
2023-03-12T15:02:02.211Z,6.13
2023-03-12T15:04:31.995Z,5.53
2023-03-12T15:07:04.522Z,6.37
2023-03-12T15:09:36.143Z,6.67
2023-03-12T15:12:07.002Z,6.33
2023-03-12T15:14:39.772Z,5.37
2023-03-12T15:17:09.558Z,5.43
2023-03-12T15:19:40.201Z,6.00
2023-03-12T15:22:12.923Z,5.63
2023-03-12T15:24:41.741Z,6.50
2023-03-12T15:27:31.713Z,5.27
2023-03-12T15:30:01.971Z,7.97
2023-03-12T15:32:31.981Z,5.93
2023-03-12T15:35:00.599Z,6.97
2023-03-12T15:37:35.280Z,5.77
2023-03-12T15:40:06.591Z,5.63
2023-03-12T15:42:41.790Z,6.43
2023-03-12T15:45:20.020Z,5.10
2023-03-12T15:47:51.066Z,5.93
2023-03-12T15:50:22.871Z,4.93
2023-03-12T15:53:02.827Z,5.83
2023-03-12T15:55:32.308Z,7.47
2023-03-12T15:58:01.297Z,7.70
2023-03-12T16:00:30.262Z,4.77
2023-03-12T16:03:01.213Z,6.33
2023-03-12T16:05:35.336Z,7.10
2023-03-12T16:08:11.234Z,6.73
2023-03-12T16:10:40.510Z,7.43
2023-03-12T16:13:11.016Z,6.03
2023-03-12T16:15:40.003Z,6.87
2023-03-12T16:18:13.823Z,6.10
2023-03-12T16:20:42.096Z,7.47
2023-03-12T16:23:10.421Z,8.20
2023-03-12T16:25:39.331Z,5.90
2023-03-12T16:28:08.227Z,7.63
2023-03-12T16:30:37.901Z,6.57
2023-03-12T16:33:09.639Z,7.37
2023-03-12T16:35:37.914Z,5.83
2023-03-12T16:38:07.215Z,7.40
2023-03-12T16:40:38.074Z,5.87
2023-03-12T16:43:08.268Z,6.90
2023-03-12T16:45:37.621Z,5.90
2023-03-12T16:48:07.518Z,5.33
2023-03-12T16:50:37.113Z,3.93
2023-03-12T16:53:05.633Z,5.40
2023-03-12T16:55:45.698Z,3.73
2023-03-12T16:58:16.261Z,4.27
2023-03-12T17:00:44.526Z,4.00
2023-03-12T17:03:20.222Z,3.30
2023-03-12T17:05:49.699Z,3.90
2023-03-12T17:08:17.794Z,2.67
2023-03-12T17:10:46.020Z,3.87
2023-03-12T17:13:22.186Z,3.23
2023-03-12T17:15:50.562Z,3.13
2023-03-12T17:18:19.267Z,2.93
2023-03-12T17:20:47.671Z,1.93
2023-03-12T17:23:17.060Z,2.83
2023-03-12T17:25:46.038Z,1.93
2023-03-12T17:28:15.362Z,3.27
2023-03-12T17:30:43.924Z,3.17
2023-03-12T17:33:14.855Z,3.27
2023-03-12T17:35:46.889Z,2.83
2023-03-12T17:38:16.344Z,2.57
2023-03-12T17:40:45.764Z,1.57
2023-03-12T17:43:13.951Z,3.17
2023-03-12T17:45:42.407Z,2.43
2023-03-12T17:48:10.436Z,2.90
2023-03-12T17:50:38.647Z,3.47
2023-03-12T17:53:07.008Z,3.43
2023-03-12T17:55:37.232Z,2.77
2023-03-12T17:58:08.467Z,3.23
2023-03-12T18:00:36.654Z,2.87
2023-03-12T18:03:04.742Z,3.87
2023-03-12T18:05:33.071Z,3.67
2023-03-12T18:08:01.129Z,3.67
2023-03-12T18:10:29.147Z,4.30
2023-03-12T18:12:58.639Z,2.80
2023-03-12T18:15:26.627Z,3.47
2023-03-12T18:17:56.749Z,3.80
2023-03-12T18:20:37.467Z,3.80
2023-03-12T18:23:06.134Z,4.13
2023-03-12T18:25:34.257Z,3.80
2023-03-12T18:28:03.764Z,3.50
2023-03-12T18:30:32.036Z,2.47
2023-03-12T18:33:00.263Z,3.67
2023-03-12T18:35:30.574Z,3.10
2023-03-12T18:37:59.016Z,2.90
2023-03-12T18:40:27.620Z,4.10
2023-03-12T18:42:58.831Z,3.10
2023-03-12T18:45:29.349Z,4.13
2023-03-12T18:47:57.713Z,2.37
2023-03-12T18:50:26.650Z,2.73
2023-03-12T18:52:54.712Z,2.60
2023-03-12T18:55:23.099Z,2.90
2023-03-12T18:57:53.004Z,2.70
2023-03-12T19:00:46.227Z,2.53
2023-03-12T19:03:36.953Z,2.50
2023-03-12T19:06:10.316Z,3.20
2023-03-12T19:08:40.370Z,2.77
2023-03-12T19:11:13.346Z,3.43
2023-03-12T19:14:07.038Z,2.60
2023-03-12T19:16:39.335Z,3.17
2023-03-12T19:19:11.799Z,3.40
2023-03-12T19:21:43.315Z,2.93
2023-03-12T19:24:16.796Z,3.90
2023-03-12T19:26:48.129Z,3.43
2023-03-12T19:29:22.072Z,3.37
2023-03-12T19:31:53.467Z,3.20
2023-03-12T19:34:25.245Z,4.60
2023-03-12T19:37:00.527Z,4.73
2023-03-12T19:39:31.144Z,4.33
2023-03-12T19:42:03.983Z,4.10
2023-03-12T19:44:39.182Z,3.03
2023-03-12T19:47:10.910Z,4.10
2023-03-12T19:49:56.521Z,4.77
2023-03-12T19:52:25.199Z,3.50
2023-03-12T19:55:03.930Z,4.33
2023-03-12T19:57:36.167Z,4.77
2023-03-12T20:00:14.669Z,4.43
2023-03-12T20:02:46.675Z,3.97
2023-03-12T20:05:19.865Z,4.33
2023-03-12T20:07:53.511Z,4.10
2023-03-12T20:10:23.777Z,4.77
2023-03-12T20:13:13.739Z,4.13
2023-03-12T20:15:47.763Z,4.30
2023-03-12T20:18:25.047Z,3.97
2023-03-12T20:20:55.357Z,4.40
2023-03-12T20:23:26.605Z,3.83
2023-03-12T20:25:57.734Z,4.07
2023-03-12T20:28:26.195Z,3.67
2023-03-12T20:31:00.119Z,4.17
2023-03-12T20:33:36.587Z,4.33
2023-03-12T20:36:12.204Z,4.07
2023-03-12T20:38:43.528Z,3.70
2023-03-12T20:41:18.605Z,4.33
2023-03-12T20:43:47.227Z,4.00
2023-03-12T20:46:21.328Z,4.43
2023-03-12T20:48:56.645Z,4.73
2023-03-12T20:51:29.390Z,3.77
2023-03-12T20:54:01.061Z,3.83
2023-03-12T20:56:31.704Z,4.33
2023-03-12T20:59:03.990Z,4.43
2023-03-12T21:01:35.210Z,4.13
2023-03-12T21:04:09.312Z,3.83
2023-03-12T21:06:46.037Z,3.33
2023-03-12T21:09:15.279Z,4.47
2023-03-12T21:11:47.913Z,4.40
2023-03-12T21:14:37.944Z,4.47
2023-03-12T21:17:13.727Z,5.00
2023-03-12T21:19:52.726Z,5.50
2023-03-12T21:22:23.857Z,4.80
2023-03-12T21:25:26.877Z,5.23
2023-03-12T21:27:58.643Z,5.20
2023-03-12T21:30:27.675Z,3.73
2023-03-12T21:32:59.832Z,4.57
2023-03-12T21:35:57.332Z,4.23
2023-03-12T21:38:49.024Z,3.60
2023-03-12T21:41:23.560Z,4.50
2023-03-12T21:44:06.446Z,4.97
2023-03-12T21:46:44.920Z,4.53
2023-03-12T21:49:22.209Z,4.70
2023-03-12T21:52:33.934Z,4.53
2023-03-12T21:55:13.869Z,3.90
2023-03-12T21:57:44.925Z,4.63
2023-03-12T22:00:23.089Z,4.80
2023-03-12T22:02:52.366Z,5.73
2023-03-12T22:05:26.823Z,4.80
2023-03-12T22:07:57.728Z,5.10
2023-03-12T22:10:43.606Z,4.47
2023-03-12T22:13:19.760Z,5.23
2023-03-12T22:15:57.126Z,5.07
2023-03-12T22:18:33.392Z,5.90
2023-03-12T22:21:07.843Z,6.57
2023-03-12T22:23:42.588Z,5.30
2023-03-12T22:26:32.414Z,4.90
2023-03-12T22:29:04.890Z,5.97
2023-03-12T22:31:34.440Z,6.47
2023-03-12T22:34:08.337Z,5.67
2023-03-12T22:36:55.669Z,6.37
2023-03-12T22:39:30.277Z,5.93
2023-03-12T22:42:01.002Z,6.83
2023-03-12T22:44:29.824Z,5.60
2023-03-12T22:46:58.295Z,5.63
2023-03-12T22:49:36.037Z,5.53
2023-03-12T22:52:19.144Z,5.70
2023-03-12T22:54:50.949Z,5.73
2023-03-12T22:57:22.009Z,5.53
2023-03-12T22:59:53.495Z,5.40
2023-03-12T23:02:21.831Z,5.57
2023-03-12T23:04:50.500Z,5.67
2023-03-12T23:07:42.260Z,4.60
2023-03-12T23:10:15.329Z,4.73
2023-03-12T23:12:48.804Z,4.17
2023-03-12T23:15:42.198Z,4.70
2023-03-12T23:18:35.503Z,4.67
2023-03-12T23:21:10.488Z,4.80
2023-03-12T23:23:43.038Z,5.10
2023-03-12T23:26:21.957Z,4.27
2023-03-12T23:28:54.836Z,4.30
2023-03-12T23:31:24.106Z,4.33
2023-03-12T23:34:12.759Z,4.53
2023-03-12T23:36:46.491Z,3.83
2023-03-12T23:39:16.550Z,4.57
2023-03-12T23:42:08.681Z,3.83
2023-03-12T23:44:42.744Z,4.97
2023-03-12T23:47:51.666Z,4.60
2023-03-12T23:51:05.641Z,4.10
2023-03-12T23:53:38.080Z,4.67
2023-03-12T23:56:09.009Z,5.37
2023-03-12T23:58:47.566Z,4.87
